Brunswick, Minnesota
Current Conditions -  °F | °C
As of 5:00 AM on Thursday 27 Nov 2014 (Local Time) from KJMR Reporting Station
Clear Clear  
Wind Chill: -16°   Ceiling: Unl
Heat Index: -4°   Visibility: 10mi
Dew Point: -8°   Wind: 6mph
Humidity: 85%   Direction: 330°NNW
Pressure: 30.49"   Gusts: NA
Location:  45.9652°N, 93.2874°W
Report Text: KJMR 271100Z AUTO 33005KT 10SM CLR M20/M22 A3049 RMK AO2
Loading
Personal Weather Stations






























Interactive Weather Map New forecast layout! Learn more

10-Day Weather Forecast

Advertisements
Track Severe Weather on mobile